Time;durP1;ratioP1;P1;durP2;ratioP2;P2;SDS_P1;SDS_P2;PMS_P1;PMS_P2;Temp;Humidity;BMP_temperature;BMP_pressure;BME280_temperature;BME280_humidity;BME280_pressure;Samples;Min_cycle;Max_cycle;Signal;HPM_P1;HPM_P2
2022/11/10 00:00:08;;;;;;;38.30;25.40;;;;;;;22.85;36.07;101323.29;100884;1329;72758;-89
2022/11/10 00:02:34;;;;;;;36.20;25.30;;;;;;;22.85;36.05;101324.27;100976;1334;69308;-89
2022/11/10 00:04:59;;;;;;;38.10;25.70;;;;;;;22.84;36.09;101327.54;101037;1332;69309;-89
2022/11/10 00:07:26;;;;;;;39.30;25.80;;;;;;;22.83;36.06;101328.16;101178;1333;69249;-89
2022/11/10 00:09:51;;;;;;;42.60;25.20;;;;;;;22.83;36.07;101334.27;100980;1329;69057;-90
2022/11/10 00:12:18;;;;;;;39.40;25.80;;;;;;;22.83;36.02;101334.02;100825;1336;69195;-89
2022/11/10 00:17:28;;;;;;;36.50;24.70;;;;;;;22.81;36.11;101333.60;101243;1332;67798;-89
2022/11/10 00:19:53;;;;;;;36.70;24.70;;;;;;;22.81;36.01;101333.02;101069;1332;69208;-89
2022/11/10 00:22:19;;;;;;;36.90;25.50;;;;;;;22.81;35.96;101327.16;101034;1334;69648;-90
2022/11/10 00:24:45;;;;;;;35.60;25.30;;;;;;;22.80;36.01;101322.91;101111;1334;69305;-92
2022/11/10 00:27:12;;;;;;;39.10;25.60;;;;;;;22.80;35.99;101321.67;100765;1334;69135;-89
2022/11/10 00:29:38;;;;;;;37.30;24.70;;;;;;;22.80;35.94;101317.77;101074;1328;69219;-89
2022/11/10 00:32:04;;;;;;;33.10;24.30;;;;;;;22.80;35.92;101316.75;101100;1328;69306;-89
2022/11/10 00:34:29;;;;;;;35.30;24.50;;;;;;;22.80;35.94;101314.89;101126;1334;73886;-89
2022/11/10 00:36:55;;;;;;;38.10;24.50;;;;;;;22.79;35.92;101312.02;101144;1334;69244;-89
2022/11/10 00:39:20;;;;;;;39.30;25.80;;;;;;;22.79;35.94;101312.18;100834;1335;69283;-89
2022/11/10 00:41:46;;;;;;;38.20;25.40;;;;;;;22.79;35.93;101313.55;101384;1295;69195;-89
2022/11/10 00:44:11;;;;;;;39.00;24.80;;;;;;;22.79;35.87;101314.48;101523;1330;69087;-89
2022/11/10 00:46:37;;;;;;;35.80;25.40;;;;;;;22.78;35.88;101312.02;101294;1330;69211;-89
2022/11/10 00:49:02;;;;;;;39.10;25.10;;;;;;;22.79;35.89;101310.94;101585;1303;69212;-89
2022/11/10 00:51:28;;;;;;;34.70;23.80;;;;;;;22.78;35.87;101306.23;101107;1332;69224;-89
2022/11/10 00:53:53;;;;;;;35.30;24.90;;;;;;;22.79;35.90;101307.56;101404;1325;69360;-89
2022/11/10 00:56:19;;;;;;;36.80;24.50;;;;;;;22.78;35.83;101302.17;101278;1319;69244;-89
2022/11/10 00:58:45;;;;;;;37.00;24.90;;;;;;;22.78;35.83;101304.77;101133;1336;69338;-89
2022/11/10 01:01:11;;;;;;;34.90;23.90;;;;;;;22.78;35.83;101302.94;101381;1330;69163;-90
2022/11/10 01:03:36;;;;;;;37.90;24.60;;;;;;;22.78;35.81;101301.23;101034;1330;69311;-93
2022/11/10 01:06:13;;;;;;;36.70;23.80;;;;;;;22.77;35.87;101302.05;101085;1330;69244;-89
2022/11/10 01:08:39;;;;;;;40.50;24.60;;;;;;;22.77;35.82;101303.39;101149;1333;73382;-89
2022/11/10 01:11:25;;;;;;;36.10;25.10;;;;;;;22.77;35.79;101299.59;101205;1330;69127;-89
2022/11/10 01:13:52;;;;;;;35.90;25.30;;;;;;;22.77;35.77;101299.95;101430;1326;69129;-90
2022/11/10 01:16:19;;;;;;;34.00;24.20;;;;;;;22.77;35.69;101296.40;101235;1330;69123;-89
2022/11/10 01:18:53;;;;;;;37.80;25.00;;;;;;;22.76;35.73;101296.81;101166;1330;69448;-89
2022/11/10 01:21:18;;;;;;;37.20;25.10;;;;;;;22.76;35.80;101294.45;101123;1323;74523;-89
2022/11/10 01:23:44;;;;;;;39.20;25.10;;;;;;;22.75;35.69;101294.55;101163;1329;66866;-89
2022/11/10 01:26:09;;;;;;;34.60;25.10;;;;;;;22.75;35.71;101290.30;101043;1336;69366;-89
2022/11/10 01:28:35;;;;;;;41.20;24.70;;;;;;;22.75;35.72;101290.86;101461;1329;69233;-89
2022/11/10 01:31:03;;;;;;;37.60;24.20;;;;;;;22.76;35.80;101290.09;101178;1331;69279;-89
2022/11/10 01:33:28;;;;;;;35.70;24.90;;;;;;;22.75;35.78;101288.30;101122;1329;69445;-94
2022/11/10 01:35:54;;;;;;;37.20;25.00;;;;;;;22.75;35.66;101285.64;101257;1322;69561;-89
2022/11/10 01:38:19;;;;;;;38.20;25.90;;;;;;;22.75;35.60;101280.24;101232;1327;69283;-89
2022/11/10 01:40:45;;;;;;;39.80;25.40;;;;;;;22.75;35.66;101281.11;101320;1325;69713;-90
2022/11/10 01:43:11;;;;;;;35.80;25.70;;;;;;;22.75;35.61;101282.34;101138;1331;69436;-90
2022/11/10 01:45:52;;;;;;;36.10;25.40;;;;;;;22.74;35.57;101281.31;101156;1332;69185;-90
2022/11/10 01:48:35;;;;;;;39.00;24.30;;;;;;;22.74;35.62;101280.55;101217;1330;69190;-90
2022/11/10 01:51:07;;;;;;;36.40;25.20;;;;;;;22.74;35.56;101283.30;101256;1331;68948;-89
2022/11/10 01:53:34;;;;;;;36.50;25.70;;;;;;;22.73;35.59;101284.55;101457;1325;73380;-89
2022/11/10 01:55:59;;;;;;;35.10;24.90;;;;;;;22.74;35.59;101289.12;101428;1324;73495;-89
2022/11/10 01:58:29;;;;;;;33.20;24.60;;;;;;;22.73;35.57;101285.92;101241;1330;67306;-90
2022/11/10 02:00:54;;;;;;;36.30;25.50;;;;;;;22.73;35.55;101286.80;101326;1330;69044;-89
2022/11/10 02:03:28;;;;;;;35.80;25.60;;;;;;;22.73;35.55;101289.98;101025;1333;69318;-92
2022/11/10 02:05:54;;;;;;;40.00;24.80;;;;;;;22.72;35.63;101283.83;101218;1330;74540;-90
2022/11/10 02:08:19;;;;;;;37.40;25.20;;;;;;;22.73;35.54;101290.04;101135;1336;69176;-89
2022/11/10 02:10:45;;;;;;;37.80;25.20;;;;;;;22.73;35.47;101289.52;101179;1330;69221;-89
2022/11/10 02:13:10;;;;;;;36.60;25.30;;;;;;;22.73;35.42;101293.41;101321;1326;69157;-89
2022/11/10 02:15:36;;;;;;;35.10;25.00;;;;;;;22.73;35.41;101296.90;101351;1330;69198;-90
2022/11/10 02:18:01;;;;;;;39.50;26.00;;;;;;;22.73;35.44;101295.37;100962;1323;66795;-89
2022/11/10 02:20:27;;;;;;;36.90;24.80;;;;;;;22.72;35.45;101296.70;101071;1330;69171;-89
2022/11/10 02:22:52;;;;;;;35.90;24.70;;;;;;;22.73;35.36;101291.92;101371;1326;69447;-89
2022/11/10 02:25:21;;;;;;;40.00;25.70;;;;;;;22.73;35.39;101295.46;101411;1327;69187;-90
2022/11/10 02:27:47;;;;;;;34.20;25.00;;;;;;;22.72;35.38;101300.08;101272;1325;69195;-90
2022/11/10 02:30:14;;;;;;;34.40;24.20;;;;;;;22.72;35.36;101295.20;101240;1325;69233;-93
2022/11/10 02:32:39;;;;;;;36.70;25.50;;;;;;;22.71;35.36;101299.10;101241;1332;70410;-89
2022/11/10 02:35:05;;;;;;;36.30;25.50;;;;;;;22.71;35.31;101298.13;101211;1331;69187;-89
2022/11/10 02:37:31;;;;;;;35.00;24.60;;;;;;;22.71;35.34;101297.55;101153;1330;69264;-90
2022/11/10 02:39:56;;;;;;;39.00;25.70;;;;;;;22.71;35.31;101297.56;101143;1325;69135;-89
2022/11/10 02:42:22;;;;;;;37.60;26.00;;;;;;;22.71;35.21;101303.30;101026;1329;69414;-90
2022/11/10 02:44:47;;;;;;;37.00;25.10;;;;;;;22.71;35.27;101300.73;100890;1327;69347;-89
2022/11/10 02:47:13;;;;;;;36.60;24.60;;;;;;;22.70;35.24;101300.84;101356;1330;69158;-89
2022/11/10 02:49:38;;;;;;;37.30;25.10;;;;;;;22.71;35.14;101301.71;101438;1323;69314;-90
2022/11/10 02:52:04;;;;;;;40.40;25.60;;;;;;;22.70;35.15;101296.11;101222;1326;69176;-89
2022/11/10 02:54:29;;;;;;;37.20;25.70;;;;;;;22.70;35.16;101301.35;101335;1317;69305;-90
2022/11/10 02:56:55;;;;;;;37.50;25.20;;;;;;;22.70;35.15;101304.84;100822;1332;69336;-89
2022/11/10 02:59:20;;;;;;;35.60;24.20;;;;;;;22.69;35.15;101303.04;101197;1330;69320;-89
2022/11/10 03:01:46;;;;;;;35.60;23.80;;;;;;;22.70;35.11;101308.38;101258;1330;69230;-89
2022/11/10 03:04:11;;;;;;;35.00;25.50;;;;;;;22.69;35.10;101306.48;101317;1325;69223;-89
2022/11/10 03:06:37;;;;;;;36.80;25.10;;;;;;;22.69;35.05;101308.92;101185;1331;66774;-89
2022/11/10 03:09:02;;;;;;;37.80;25.50;;;;;;;22.69;35.08;101312.00;100987;1330;69226;-94
2022/11/10 03:11:28;;;;;;;34.80;24.10;;;;;;;22.68;35.01;101309.91;101106;1327;69237;-89
2022/11/10 03:13:53;;;;;;;38.00;25.30;;;;;;;22.69;35.02;101310.16;101151;1322;69244;-89
2022/11/10 03:16:19;;;;;;;37.00;25.30;;;;;;;22.68;34.94;101310.41;101299;1330;69162;-89
2022/11/10 03:18:44;;;;;;;40.70;25.40;;;;;;;22.68;34.91;101305.84;101123;1329;69126;-89
2022/11/10 03:21:10;;;;;;;38.70;24.90;;;;;;;22.67;34.94;101307.64;101453;1323;69210;-94
2022/11/10 03:23:35;;;;;;;39.40;24.80;;;;;;;22.66;34.96;101305.73;100933;1331;69280;-89
2022/11/10 03:26:04;;;;;;;37.70;25.70;;;;;;;22.66;34.90;101308.81;100997;1328;73910;-89
2022/11/10 03:28:30;;;;;;;39.80;25.30;;;;;;;22.66;34.91;101304.81;101827;1293;81233;-89
2022/11/10 03:30:55;;;;;;;33.90;24.30;;;;;;;22.66;34.86;101309.38;101456;1333;69255;-90
2022/11/10 03:33:21;;;;;;;33.30;24.60;;;;;;;22.66;34.83;101306.82;101342;1328;69321;-90
2022/11/10 03:35:46;;;;;;;34.60;25.80;;;;;;;22.67;34.85;101309.13;101315;1327;69276;-89
2022/11/10 03:38:12;;;;;;;36.40;23.90;;;;;;;22.66;34.82;101308.10;101390;1322;69248;-89
2022/11/10 03:40:37;;;;;;;38.60;25.30;;;;;;;22.66;34.80;101310.36;101216;1333;69366;-89
2022/11/10 03:43:03;;;;;;;38.20;24.90;;;;;;;22.66;34.74;101306.81;101191;1325;281551;-89
2022/11/10 03:45:28;;;;;;;38.40;24.60;;;;;;;22.66;34.73;101306.23;101330;1329;69219;-89
2022/11/10 03:47:54;;;;;;;38.30;25.20;;;;;;;22.66;34.77;101308.55;101176;1323;69229;-89
2022/11/10 03:50:19;;;;;;;37.30;25.40;;;;;;;22.65;34.77;101308.64;101317;1324;69219;-89
2022/11/10 03:52:45;;;;;;;38.10;23.30;;;;;;;22.65;34.78;101308.75;101233;1331;69253;-90
2022/11/10 03:55:13;;;;;;;31.40;21.40;;;;;;;22.65;34.95;101307.31;101196;1326;69320;-89
2022/11/10 03:57:39;;;;;;;29.40;20.20;;;;;;;22.66;35.08;101309.02;101342;1326;69190;-90
2022/11/10 04:00:05;;;;;;;30.70;21.10;;;;;;;22.67;35.37;101313.08;101242;1333;69342;-90
2022/11/10 04:02:30;;;;;;;33.90;23.50;;;;;;;22.66;35.59;101313.79;101170;1325;69189;-89
2022/11/10 04:10:24;;;;;;;39.40;27.70;;;;;;;22.52;35.73;101311.40;101344;1329;74696;-89
2022/11/10 04:15:43;;;;;;;48.50;31.20;;;;;;;22.44;35.53;101312.55;101238;1332;72805;-90
2022/11/10 04:18:25;;;;;;;49.90;31.40;;;;;;;22.39;35.42;101316.95;101288;1330;69343;-90
2022/11/10 04:20:52;;;;;;;41.20;28.70;;;;;;;22.33;35.34;101316.04;101119;1333;69225;-92
2022/11/10 04:23:26;;;;;;;41.50;28.70;;;;;;;22.30;35.23;101314.52;101020;1333;73887;-90
2022/11/10 04:28:37;;;;;;;44.00;27.20;;;;;;;22.28;35.17;101320.71;101556;1294;72488;-90
2022/11/10 04:31:02;;;;;;;43.40;30.20;;;;;;;22.26;35.11;101322.14;101249;1325;69368;-89
2022/11/10 04:33:28;;;;;;;49.10;34.10;;;;;;;22.26;34.94;101323.23;101152;1326;69197;-90
2022/11/10 04:35:53;;;;;;;51.30;36.00;;;;;;;22.25;34.82;101327.98;101238;1325;69267;-92
2022/11/10 04:38:19;;;;;;;48.00;33.20;;;;;;;22.25;34.70;101326.85;101184;1333;69325;-89
2022/11/10 04:40:44;;;;;;;49.40;33.50;;;;;;;22.25;34.65;101334.02;101452;1332;69213;-89
2022/11/10 04:43:10;;;;;;;47.80;32.70;;;;;;;22.26;34.45;101330.19;101283;1327;69295;-90
2022/11/10 04:45:35;;;;;;;55.10;34.10;;;;;;;22.26;34.34;101326.25;101392;1327;69414;-89
2022/11/10 04:48:01;;;;;;;51.20;33.80;;;;;;;22.25;34.28;101328.09;101506;1325;69110;-90
2022/11/10 04:50:26;;;;;;;46.60;32.30;;;;;;;22.25;34.21;101331.02;101077;1336;69073;-90
2022/11/10 04:52:52;;;;;;;44.00;30.20;;;;;;;22.27;34.09;101329.89;101402;1325;69255;-90
2022/11/10 04:55:17;;;;;;;46.60;29.20;;;;;;;22.28;34.04;101333.14;101389;1334;69582;-89
2022/11/10 04:57:43;;;;;;;40.60;27.60;;;;;;;22.31;33.95;101333.78;101454;1329;69288;-90
2022/11/10 05:00:09;;;;;;;39.90;27.10;;;;;;;22.34;33.82;101337.08;101631;1333;69681;-90
2022/11/10 05:02:35;;;;;;;42.30;27.60;;;;;;;22.36;33.85;101337.41;101412;1332;69189;-89
2022/11/10 05:05:02;;;;;;;37.90;25.90;;;;;;;22.39;33.73;101336.61;101558;1333;69191;-89
2022/11/10 05:07:28;;;;;;;36.80;24.70;;;;;;;22.42;33.64;101336.52;101418;1333;69354;-90
2022/11/10 05:09:53;;;;;;;39.10;25.50;;;;;;;22.44;33.63;101340.27;101518;1325;69142;-90
2022/11/10 05:12:19;;;;;;;37.70;24.90;;;;;;;22.46;33.47;101340.06;102121;1316;67106;-90
2022/11/10 05:14:45;;;;;;;35.70;24.70;;;;;;;22.48;33.52;101341.84;101572;1328;69218;-90
2022/11/10 05:17:11;;;;;;;36.80;24.70;;;;;;;22.50;33.53;101346.05;101593;1325;69199;-91
2022/11/10 05:19:36;;;;;;;40.30;24.20;;;;;;;22.53;33.47;101342.37;102164;1327;69215;-89
2022/11/10 05:22:02;;;;;;;39.80;23.60;;;;;;;22.55;33.42;101344.17;102205;1310;66830;-91
2022/11/10 05:24:27;;;;;;;35.90;23.60;;;;;;;22.56;33.49;101342.30;102294;1310;69180;-90
2022/11/10 05:26:53;;;;;;;36.90;24.60;;;;;;;22.59;33.50;101347.95;101838;1323;69225;-90
2022/11/10 05:29:18;;;;;;;37.10;24.10;;;;;;;22.60;33.53;101341.66;101882;1332;69342;-92
2022/11/10 05:31:44;;;;;;;35.40;24.40;;;;;;;22.61;33.48;101341.20;101866;1297;69241;-91
2022/11/10 05:34:14;;;;;;;36.50;24.20;;;;;;;22.62;33.39;101345.58;102032;1302;69330;-91
2022/11/10 05:36:40;;;;;;;36.80;24.40;;;;;;;22.63;33.33;101350.50;102200;1315;73824;-90
2022/11/10 05:39:05;;;;;;;38.20;23.90;;;;;;;22.63;33.35;101359.36;101854;1333;67333;-90
2022/11/10 05:44:00;;;;;;;35.40;23.40;;;;;;;22.64;33.22;101366.45;102252;1307;67854;-92
2022/11/10 05:46:25;;;;;;;40.70;24.50;;;;;;;22.64;33.26;101367.08;102449;1313;68655;-90
2022/11/10 05:48:55;;;;;;;37.00;23.50;;;;;;;22.65;33.33;101371.44;102221;1304;68396;-90
2022/11/10 05:51:52;;;;;;;42.70;25.30;;;;;;;22.65;33.22;101378.30;102217;1320;82447;-91
2022/11/10 05:54:17;;;;;;;37.80;24.60;;;;;;;22.65;33.22;101384.11;101887;1336;73017;-88
2022/11/10 05:56:43;;;;;;;38.40;25.00;;;;;;;22.65;33.21;101382.57;101847;1336;67633;-89
2022/11/10 05:59:08;;;;;;;40.60;25.60;;;;;;;22.67;33.21;101389.81;101990;1318;69703;-88
2022/11/10 06:01:34;;;;;;;35.50;24.10;;;;;;;22.67;33.14;101391.81;102138;1333;69187;-89
2022/11/10 06:03:59;;;;;;;40.60;24.90;;;;;;;22.66;33.08;101393.76;101953;1324;67810;-88
2022/11/10 06:06:25;;;;;;;37.60;24.70;;;;;;;22.66;33.00;101395.45;101938;1322;69272;-88
2022/11/10 06:08:51;;;;;;;42.10;26.50;;;;;;;22.65;33.00;101398.63;102637;1301;69181;-88
2022/11/10 06:11:16;;;;;;;39.30;24.90;;;;;;;22.64;33.05;101397.08;102215;1323;67094;-89
2022/11/10 06:13:42;;;;;;;39.50;26.00;;;;;;;22.63;33.07;101399.08;101976;1316;69158;-87
2022/11/10 06:16:07;;;;;;;41.10;25.60;;;;;;;22.62;33.02;101398.45;102039;1329;69221;-89
2022/11/10 06:18:33;;;;;;;41.10;26.40;;;;;;;22.61;33.03;101402.20;102057;1333;69273;-89
2022/11/10 06:20:58;;;;;;;42.20;27.00;;;;;;;22.60;32.93;101406.19;102426;1326;67167;-87
2022/11/10 06:23:23;;;;;;;40.70;27.00;;;;;;;22.59;32.94;101407.88;101896;1333;67454;-92
2022/11/10 06:25:49;;;;;;;47.70;33.40;;;;;;;22.58;32.91;101413.05;102144;1333;67922;-90
2022/11/10 06:28:16;;;;;;;49.60;34.80;;;;;;;22.56;33.12;101410.71;102253;1328;69057;-89
2022/11/10 06:30:41;;;;;;;51.50;34.50;;;;;;;22.55;33.01;101411.27;102157;1323;73685;-90
2022/11/10 06:33:07;;;;;;;50.30;32.30;;;;;;;22.55;32.91;101410.50;102346;1323;69164;-90
2022/11/10 06:35:33;;;;;;;45.90;32.10;;;;;;;22.56;32.99;101410.66;102261;1336;69228;-88
2022/11/10 06:38:19;;;;;;;44.90;30.60;;;;;;;22.56;33.02;101417.34;102202;1320;67638;-87
2022/11/10 06:40:44;;;;;;;49.70;31.00;;;;;;;22.58;33.14;101415.95;102154;1313;67402;-87
2022/11/10 06:43:10;;;;;;;45.20;29.50;;;;;;;22.60;33.12;101419.06;102249;1319;66987;-87
2022/11/10 06:45:35;;;;;;;43.10;29.40;;;;;;;22.61;33.13;101415.02;102263;1322;66974;-89
2022/11/10 17:35:09;;;;;;;;;;;;;;;22.88;35.61;101506.49;85378;1340;65709;31
2022/11/10 17:37:35;;;;;;;;;;;;;;;22.89;35.63;101511.08;102657;1339;66792;-93
2022/11/10 19:02:50;;;;;;;;;;;;;;;22.84;35.74;101546.30;93247;1310;80157;31
2022/11/10 20:23:32;;;;;;;;;;;;;;;22.91;35.91;101586.27;85546;1347;80226;-94
2022/11/10 20:26:16;;;;;;;;;;;;;;;22.90;35.88;101583.70;102612;1336;66852;-94
2022/11/10 20:28:41;;;;;;;;;;;;;;;22.91;35.90;101584.07;102690;1332;66738;-93
2022/11/10 20:31:19;;;;;;;;;;;;;;;22.91;35.79;101584.54;102667;1332;67074;-93
2022/11/10 20:33:45;;;;;;;;;;;;;;;22.91;35.85;101582.84;102747;1332;73747;-93
2022/11/10 20:36:12;;;;;;;;;;;;;;;22.92;35.86;101582.64;102697;1332;66753;-93
2022/11/10 20:38:37;;;;;;;;;;;;;;;22.92;35.86;101586.75;102713;1332;72666;-93
2022/11/10 20:43:53;;;;;;;;;;;;;;;22.92;35.92;101582.95;102894;1317;66750;-93
